createdAt,value
2018-05-13T00:00:06.637Z,6.10
2018-05-13T00:02:34.293Z,5.93
2018-05-13T00:05:01.936Z,6.43
2018-05-13T00:07:29.632Z,6.40
2018-05-13T00:09:57.232Z,5.50
2018-05-13T00:12:24.876Z,7.00
2018-05-13T00:14:52.482Z,6.27
2018-05-13T00:17:20.116Z,6.27
2018-05-13T00:19:47.747Z,5.87
2018-05-13T00:22:15.446Z,6.30
2018-05-13T00:24:43.045Z,7.07
2018-05-13T00:27:10.697Z,6.60
2018-05-13T00:29:38.437Z,7.40
2018-05-13T00:32:06.073Z,6.97
2018-05-13T00:34:33.666Z,6.20
2018-05-13T00:37:01.309Z,7.00
2018-05-13T00:39:28.917Z,6.40
2018-05-13T00:41:56.566Z,6.60
2018-05-13T00:44:24.184Z,8.43
2018-05-13T00:46:51.832Z,6.70
2018-05-13T00:49:19.428Z,6.10
2018-05-13T00:51:47.025Z,6.83
2018-05-13T00:54:26.249Z,6.40
2018-05-13T00:56:53.850Z,6.70
2018-05-13T00:59:21.490Z,6.80
2018-05-13T01:01:49.081Z,6.43
2018-05-13T01:04:16.773Z,6.97
2018-05-13T01:06:44.403Z,6.20
2018-05-13T01:09:12.056Z,7.33
2018-05-13T01:11:39.656Z,6.03
2018-05-13T01:14:07.288Z,6.10
2018-05-13T01:16:34.920Z,6.40
2018-05-13T01:19:02.552Z,6.50
2018-05-13T01:21:30.188Z,6.23
2018-05-13T01:23:57.828Z,6.20
2018-05-13T01:26:25.452Z,6.90
2018-05-13T01:28:53.188Z,6.57
2018-05-13T01:31:20.780Z,7.07
2018-05-13T01:33:48.761Z,6.73
2018-05-13T01:36:21.022Z,8.27
2018-05-13T01:38:50.381Z,8.00
2018-05-13T01:41:18.422Z,8.90
2018-05-13T01:43:46.145Z,8.57
2018-05-13T01:46:14.023Z,8.43
2018-05-13T01:48:41.713Z,8.87
2018-05-13T01:51:09.402Z,8.07
2018-05-13T01:53:37.033Z,7.23
2018-05-13T01:56:04.684Z,7.70
2018-05-13T01:58:32.297Z,9.00
2018-05-13T02:00:59.971Z,7.60
2018-05-13T02:03:27.658Z,8.30
2018-05-13T02:05:55.839Z,9.13
2018-05-13T02:08:23.593Z,8.33
2018-05-13T02:10:51.265Z,9.17
2018-05-13T02:13:19.736Z,8.50
2018-05-13T02:15:47.532Z,8.80
2018-05-13T02:18:16.449Z,8.30
2018-05-13T02:20:44.964Z,9.20
2018-05-13T02:23:13.593Z,9.50
2018-05-13T02:25:41.483Z,8.50
2018-05-13T02:28:10.268Z,9.30
2018-05-13T02:30:38.048Z,9.23
2018-05-13T02:33:05.814Z,8.37
2018-05-13T02:35:33.887Z,9.00
2018-05-13T02:38:01.531Z,9.17
2018-05-13T02:40:29.152Z,9.43
2018-05-13T02:42:56.772Z,8.63
2018-05-13T02:45:24.365Z,8.70
2018-05-13T02:47:52.006Z,9.00
2018-05-13T02:50:19.633Z,8.70
2018-05-13T02:52:47.305Z,8.10
2018-05-13T02:55:14.996Z,8.40
2018-05-13T02:57:42.638Z,8.67
2018-05-13T03:00:10.296Z,7.87
2018-05-13T03:02:37.931Z,8.43
2018-05-13T03:05:05.563Z,9.50
2018-05-13T03:07:33.302Z,8.33
2018-05-13T03:10:00.954Z,8.50
2018-05-13T03:12:28.939Z,9.10
2018-05-13T03:14:57.166Z,8.60
2018-05-13T03:17:25.093Z,8.23
2018-05-13T03:19:53.110Z,8.13
2018-05-13T03:22:20.830Z,8.03
2018-05-13T03:24:51.805Z,8.23
2018-05-13T03:27:19.928Z,7.90
2018-05-13T03:29:47.707Z,7.80
2018-05-13T03:32:15.469Z,7.90
2018-05-13T03:34:43.425Z,8.07
2018-05-13T03:37:11.030Z,8.77
2018-05-13T03:39:38.743Z,7.80
2018-05-13T03:42:06.402Z,7.53
2018-05-13T03:44:34.033Z,7.70
2018-05-13T03:47:01.642Z,8.60
2018-05-13T03:49:29.278Z,7.57
2018-05-13T03:51:56.876Z,6.93
2018-05-13T03:54:24.462Z,7.13
2018-05-13T03:56:52.222Z,6.80
2018-05-13T03:59:19.786Z,7.60
2018-05-13T04:01:47.445Z,7.43
2018-05-13T04:04:15.048Z,7.30
2018-05-13T04:06:42.678Z,6.90
2018-05-13T04:09:21.779Z,7.10
2018-05-13T04:12:01.029Z,6.83
2018-05-13T04:14:40.389Z,6.40
2018-05-13T04:17:09.654Z,8.10
2018-05-13T04:19:37.265Z,7.20
2018-05-13T04:22:05.047Z,8.87
2018-05-13T04:24:32.652Z,8.27
2018-05-13T04:27:00.302Z,8.40
2018-05-13T04:29:27.916Z,9.17
2018-05-13T04:31:55.556Z,8.40
2018-05-13T04:34:23.161Z,7.90
2018-05-13T04:36:50.800Z,7.70
2018-05-13T04:39:18.401Z,7.97
2018-05-13T04:41:46.037Z,8.07
2018-05-13T04:44:13.730Z,8.30
2018-05-13T04:46:41.320Z,8.47
2018-05-13T04:49:08.963Z,9.00
2018-05-13T04:51:36.553Z,8.57
2018-05-13T04:54:04.183Z,8.60
2018-05-13T04:56:31.784Z,7.47
2018-05-13T04:58:59.429Z,7.50
2018-05-13T05:01:27.166Z,7.77
2018-05-13T05:03:54.925Z,8.17
2018-05-13T05:06:22.528Z,7.33
2018-05-13T05:08:50.212Z,8.67
2018-05-13T05:11:17.776Z,7.80
2018-05-13T05:13:45.631Z,8.53
2018-05-13T05:16:13.240Z,7.53
2018-05-13T05:18:40.880Z,7.70
2018-05-13T05:21:08.481Z,7.20
2018-05-13T05:23:36.256Z,8.10
2018-05-13T05:26:03.856Z,7.80
2018-05-13T05:28:31.492Z,8.13
2018-05-13T05:30:59.096Z,7.20
2018-05-13T05:33:26.824Z,7.67
2018-05-13T05:35:54.421Z,7.70
2018-05-13T05:38:22.077Z,7.67
2018-05-13T05:40:49.677Z,7.40
2018-05-13T05:43:17.409Z,6.67
2018-05-13T05:45:45.121Z,7.10
2018-05-13T05:48:12.833Z,6.50
2018-05-13T05:50:40.455Z,7.20
2018-05-13T05:53:08.065Z,7.03
2018-05-13T05:55:35.881Z,8.40
2018-05-13T05:58:03.474Z,8.63
2018-05-13T06:00:31.189Z,8.10
2018-05-13T06:02:59.363Z,8.53
2018-05-13T06:05:27.649Z,8.50
2018-05-13T06:07:55.270Z,8.50
2018-05-13T06:10:22.905Z,8.20
2018-05-13T06:12:50.587Z,7.63
2018-05-13T06:15:18.249Z,8.20
2018-05-13T06:17:45.990Z,8.60
2018-05-13T06:20:13.779Z,8.00
2018-05-13T06:22:42.001Z,8.43
2018-05-13T06:25:09.870Z,8.30
2018-05-13T06:27:37.599Z,8.87
2018-05-13T06:30:05.534Z,9.10
2018-05-13T06:32:33.402Z,9.37
2018-05-13T06:35:01.279Z,10.27
2018-05-13T06:37:30.205Z,10.53
2018-05-13T06:39:57.820Z,13.00
2018-05-13T06:42:25.469Z,13.73
2018-05-13T06:44:53.091Z,15.40
2018-05-13T06:47:21.763Z,14.87
2018-05-13T06:49:49.707Z,15.33
2018-05-13T06:52:18.035Z,13.63
2018-05-13T06:54:45.913Z,13.90
2018-05-13T06:57:13.716Z,13.90
2018-05-13T06:59:42.900Z,14.57
2018-05-13T07:02:10.610Z,16.37
2018-05-13T07:04:38.324Z,16.87
2018-05-13T07:07:07.050Z,15.60
2018-05-13T07:09:36.630Z,17.17
2018-05-13T07:12:05.586Z,15.60
2018-05-13T07:14:33.528Z,16.23
2018-05-13T07:17:01.177Z,18.03
2018-05-13T07:19:28.805Z,17.20
2018-05-13T07:21:56.449Z,17.10
2018-05-13T07:24:24.054Z,16.87
2018-05-13T07:26:51.694Z,19.20
2018-05-13T07:29:19.335Z,19.60
2018-05-13T07:31:46.953Z,20.73
2018-05-13T07:34:14.585Z,20.07
2018-05-13T07:36:42.224Z,22.73
2018-05-13T07:39:09.880Z,22.57
2018-05-13T07:41:37.509Z,24.53
2018-05-13T07:44:05.160Z,25.60
2018-05-13T07:46:32.768Z,27.87
2018-05-13T07:49:00.513Z,26.00
2018-05-13T07:51:28.115Z,26.10
2018-05-13T07:53:55.784Z,27.60
2018-05-13T07:56:23.435Z,28.07
2018-05-13T07:58:51.087Z,28.90
2018-05-13T08:01:18.724Z,32.30
2018-05-13T08:03:46.611Z,26.10
2018-05-13T08:06:14.235Z,27.33
2018-05-13T08:08:41.877Z,28.20
2018-05-13T08:11:09.584Z,27.47
2018-05-13T08:13:37.259Z,28.17
2018-05-13T08:16:05.022Z,26.77
2018-05-13T08:18:32.636Z,27.60
2018-05-13T08:21:00.295Z,29.27
2018-05-13T08:23:28.290Z,27.20
2018-05-13T08:25:55.973Z,29.90
2018-05-13T08:28:23.599Z,28.03
2018-05-13T08:30:51.228Z,29.30
2018-05-13T08:33:18.873Z,29.67
2018-05-13T08:35:46.640Z,32.00
2018-05-13T08:38:14.726Z,32.73
2018-05-13T08:40:42.405Z,33.33
2018-05-13T08:43:10.029Z,31.63
2018-05-13T08:45:37.708Z,31.37
2018-05-13T08:48:05.334Z,32.47
2018-05-13T08:50:33.100Z,32.57
2018-05-13T08:53:00.840Z,34.67
2018-05-13T08:55:28.554Z,31.50
2018-05-13T08:57:56.176Z,34.00
2018-05-13T09:00:23.806Z,32.47
2018-05-13T09:02:51.480Z,32.30
2018-05-13T09:05:19.248Z,36.53
2018-05-13T09:07:46.997Z,36.83
2018-05-13T09:10:14.614Z,36.23
2018-05-13T09:12:42.385Z,36.57
2018-05-13T09:15:10.041Z,35.57
2018-05-13T09:17:37.786Z,39.67
2018-05-13T09:20:05.470Z,40.03
2018-05-13T09:22:33.232Z,42.77
2018-05-13T09:25:00.885Z,40.87
2018-05-13T09:27:28.584Z,42.00
2018-05-13T09:29:56.272Z,43.97
2018-05-13T09:32:23.926Z,43.93
2018-05-13T09:34:51.610Z,43.43
2018-05-13T09:37:19.306Z,45.30
2018-05-13T09:39:46.958Z,46.13
2018-05-13T09:42:14.764Z,45.97
2018-05-13T09:44:42.493Z,45.50
2018-05-13T09:47:10.193Z,46.20
2018-05-13T09:49:37.957Z,48.13
2018-05-13T09:52:05.867Z,48.97
2018-05-13T09:54:33.553Z,45.93
2018-05-13T09:57:01.253Z,50.10
2018-05-13T09:59:28.905Z,52.30
2018-05-13T10:01:56.520Z,51.40
2018-05-13T10:04:24.334Z,52.00
2018-05-13T10:06:52.029Z,52.67
2018-05-13T10:09:19.862Z,49.57
2018-05-13T10:11:47.725Z,47.73
2018-05-13T10:14:15.388Z,49.47
2018-05-13T10:16:43.166Z,51.03
2018-05-13T10:19:10.925Z,56.20
2018-05-13T10:21:38.525Z,54.40
2018-05-13T10:24:06.258Z,55.50
2018-05-13T10:26:33.937Z,57.37
2018-05-13T10:29:01.709Z,57.03
2018-05-13T10:31:29.432Z,57.77
2018-05-13T10:33:57.103Z,57.90
2018-05-13T10:36:24.821Z,62.30
2018-05-13T10:38:52.455Z,56.70
2018-05-13T10:41:20.077Z,57.70
2018-05-13T10:43:47.714Z,60.07
2018-05-13T10:46:15.397Z,65.50
2018-05-13T10:48:43.033Z,57.57
2018-05-13T10:51:10.893Z,57.53
2018-05-13T10:53:38.524Z,58.63
2018-05-13T10:56:06.110Z,57.50
2018-05-13T10:58:33.768Z,60.57
2018-05-13T11:01:01.381Z,59.63
2018-05-13T11:03:29.201Z,59.40
2018-05-13T11:06:06.172Z,60.77
2018-05-13T11:08:34.289Z,54.87
2018-05-13T11:13:43.055Z,56.93
2018-05-13T11:16:10.977Z,55.43
2018-05-13T11:18:38.963Z,55.03
2018-05-13T11:21:06.750Z,55.53
2018-05-13T11:23:34.437Z,55.77
2018-05-13T11:26:02.054Z,51.07
2018-05-13T11:28:29.699Z,53.43
2018-05-13T11:30:57.305Z,52.80
2018-05-13T11:33:24.962Z,51.47
2018-05-13T11:35:52.585Z,51.33
2018-05-13T11:38:20.326Z,52.20
2018-05-13T11:40:47.953Z,49.93
2018-05-13T11:43:15.654Z,52.00
2018-05-13T11:45:43.301Z,48.90
2018-05-13T11:48:10.919Z,48.30
2018-05-13T11:50:38.614Z,48.20
2018-05-13T11:53:06.258Z,43.00
2018-05-13T11:55:33.893Z,44.00
2018-05-13T11:58:01.505Z,42.77
2018-05-13T12:00:29.173Z,44.77
2018-05-13T12:02:56.788Z,44.37
2018-05-13T12:05:24.500Z,39.00
2018-05-13T12:07:52.179Z,42.67
2018-05-13T12:10:19.813Z,44.57
2018-05-13T12:12:47.609Z,39.90
2018-05-13T12:15:15.311Z,41.97
2018-05-13T12:17:42.864Z,40.90
2018-05-13T12:20:10.517Z,42.60
2018-05-13T12:22:38.143Z,38.47
2018-05-13T12:25:05.795Z,38.73
2018-05-13T12:27:33.433Z,37.83
2018-05-13T12:30:01.032Z,39.93
2018-05-13T12:32:28.755Z,40.67
2018-05-13T12:34:56.356Z,43.70
2018-05-13T12:37:24.007Z,44.03
2018-05-13T12:39:51.678Z,41.00
2018-05-13T12:42:19.411Z,43.13
2018-05-13T12:44:46.981Z,43.23
2018-05-13T12:47:14.681Z,41.40
2018-05-13T12:49:42.290Z,40.87
2018-05-13T12:52:09.951Z,41.67
2018-05-13T12:54:37.665Z,42.97
2018-05-13T12:57:05.335Z,40.30
2018-05-13T12:59:33.070Z,44.40
2018-05-13T13:02:00.743Z,39.63
2018-05-13T13:04:28.369Z,42.37
2018-05-13T13:06:56.047Z,42.53
2018-05-13T13:09:23.855Z,41.97
2018-05-13T13:11:51.494Z,39.70
2018-05-13T13:14:19.152Z,41.57
2018-05-13T13:16:46.780Z,40.03
2018-05-13T13:19:14.406Z,39.87
2018-05-13T13:21:42.036Z,39.50
2018-05-13T13:24:09.774Z,42.40
2018-05-13T13:26:37.400Z,43.60
2018-05-13T13:29:05.086Z,42.13
2018-05-13T13:31:32.721Z,40.73
2018-05-13T13:34:00.371Z,40.77
2018-05-13T13:36:27.998Z,39.70
2018-05-13T13:38:55.685Z,41.10
2018-05-13T13:41:23.305Z,37.10
2018-05-13T13:43:51.004Z,37.70
2018-05-13T13:46:18.614Z,38.37
2018-05-13T13:48:46.242Z,39.03
2018-05-13T13:51:13.928Z,36.47
2018-05-13T13:53:41.711Z,37.60
2018-05-13T13:56:09.320Z,40.63
2018-05-13T13:58:37.038Z,41.27
2018-05-13T14:01:04.647Z,39.50
2018-05-13T14:03:32.289Z,40.27
2018-05-13T14:05:59.901Z,36.27
2018-05-13T14:08:27.722Z,33.97
2018-05-13T14:10:55.350Z,37.20
2018-05-13T14:13:22.989Z,32.93
2018-05-13T14:15:50.654Z,35.20
2018-05-13T14:18:18.240Z,32.77
2018-05-13T14:20:45.888Z,31.27
2018-05-13T14:23:13.631Z,34.97
2018-05-13T14:25:41.297Z,34.60
2018-05-13T14:28:08.928Z,34.33
2018-05-13T14:30:36.596Z,33.37
2018-05-13T14:33:04.316Z,33.73
2018-05-13T14:35:32.033Z,34.00
2018-05-13T14:37:59.730Z,33.90
2018-05-13T14:40:27.285Z,32.00
2018-05-13T14:42:54.970Z,30.37
2018-05-13T14:45:22.658Z,29.23
2018-05-13T14:47:50.431Z,26.53
2018-05-13T14:50:17.973Z,28.97
2018-05-13T14:52:45.584Z,25.60
2018-05-13T14:55:13.241Z,27.50
2018-05-13T14:57:40.854Z,29.70
2018-05-13T15:00:08.549Z,26.23
2018-05-13T15:02:36.204Z,28.30
2018-05-13T15:05:03.992Z,33.40
2018-05-13T15:07:31.606Z,33.63
2018-05-13T15:09:59.258Z,36.60
2018-05-13T15:12:26.981Z,38.77
2018-05-13T15:14:54.627Z,38.80
2018-05-13T15:17:22.285Z,43.00
2018-05-13T15:19:49.913Z,43.77
2018-05-13T15:22:17.568Z,45.13
2018-05-13T15:24:45.181Z,47.73
2018-05-13T15:27:12.834Z,43.30
2018-05-13T15:29:40.488Z,42.27
2018-05-13T15:32:08.117Z,42.13
2018-05-13T15:34:35.760Z,41.60
2018-05-13T15:37:03.384Z,43.60
2018-05-13T15:39:31.122Z,42.40
2018-05-13T15:41:58.721Z,39.90
2018-05-13T15:44:26.374Z,43.53
2018-05-13T15:46:53.989Z,39.03
2018-05-13T15:49:21.650Z,40.73
2018-05-13T15:51:49.317Z,40.50
2018-05-13T15:54:17.087Z,41.20
2018-05-13T15:56:44.928Z,39.47
2018-05-13T15:59:12.977Z,40.53
2018-05-13T16:01:40.621Z,37.87
2018-05-13T16:04:08.269Z,39.90
2018-05-13T16:06:35.925Z,39.17
2018-05-13T16:09:03.528Z,38.80
2018-05-13T16:11:31.161Z,37.53
2018-05-13T16:13:58.808Z,39.90
2018-05-13T16:16:26.652Z,37.87
2018-05-13T16:18:54.411Z,36.40
2018-05-13T16:21:23.223Z,38.43
2018-05-13T16:23:50.958Z,41.77
2018-05-13T16:26:18.614Z,40.63
2018-05-13T16:28:46.231Z,41.07
2018-05-13T16:31:14.018Z,41.40
2018-05-13T16:33:41.689Z,42.17
2018-05-13T16:36:09.415Z,43.27
2018-05-13T16:38:37.038Z,42.90
2018-05-13T16:41:04.702Z,42.00
2018-05-13T16:43:32.465Z,43.73
2018-05-13T16:46:00.165Z,41.57
2018-05-13T16:48:27.790Z,39.60
2018-05-13T16:50:55.445Z,40.47
2018-05-13T16:53:23.101Z,39.43
2018-05-13T16:55:50.764Z,40.23
2018-05-13T16:58:18.377Z,42.20
2018-05-13T17:00:46.024Z,38.23
2018-05-13T17:03:13.641Z,39.80
2018-05-13T17:05:41.343Z,41.00
2018-05-13T17:08:09.043Z,41.80
2018-05-13T17:10:36.692Z,41.80
2018-05-13T17:13:04.380Z,40.67
2018-05-13T17:15:32.140Z,42.43
2018-05-13T17:17:59.818Z,41.77
2018-05-13T17:20:27.509Z,45.30
2018-05-13T17:22:55.211Z,45.63
2018-05-13T17:25:22.848Z,44.27
2018-05-13T17:27:50.558Z,46.17
2018-05-13T17:30:18.189Z,47.50
2018-05-13T17:32:45.847Z,49.03
2018-05-13T17:35:13.465Z,53.00
2018-05-13T17:37:41.317Z,53.83
2018-05-13T17:40:08.953Z,55.97
2018-05-13T17:42:36.602Z,54.27
2018-05-13T17:45:04.270Z,54.63
2018-05-13T17:47:32.015Z,56.73
2018-05-13T17:49:59.707Z,58.10
2018-05-13T17:52:27.244Z,57.40
2018-05-13T17:54:54.897Z,59.67
2018-05-13T17:57:22.586Z,57.30
2018-05-13T17:59:50.270Z,62.83
2018-05-13T18:02:17.919Z,72.60
2018-05-13T18:04:45.582Z,60.50
2018-05-13T18:07:13.205Z,59.60
2018-05-13T18:09:41.006Z,61.77
2018-05-13T18:12:08.621Z,56.30
2018-05-13T18:14:36.421Z,59.00
2018-05-13T18:17:04.044Z,57.47
2018-05-13T18:19:31.734Z,58.43
2018-05-13T18:21:59.402Z,58.00
2018-05-13T18:24:27.072Z,55.43
2018-05-13T18:26:54.728Z,54.47
2018-05-13T18:29:22.472Z,57.67
2018-05-13T18:31:50.100Z,58.13
2018-05-13T18:34:17.773Z,57.70
2018-05-13T18:36:45.515Z,51.70
2018-05-13T18:39:13.209Z,49.70
2018-05-13T18:41:41.040Z,50.90
2018-05-13T18:44:08.706Z,51.67
2018-05-13T18:46:36.362Z,51.50
2018-05-13T18:49:04.000Z,50.53
2018-05-13T18:51:31.672Z,45.87
2018-05-13T18:53:59.360Z,48.50
2018-05-13T18:56:27.011Z,48.73
2018-05-13T18:58:54.673Z,49.93
2018-05-13T19:01:22.325Z,51.27
2018-05-13T19:03:49.961Z,50.10
2018-05-13T19:06:17.633Z,52.63
2018-05-13T19:08:45.293Z,51.47
2018-05-13T19:11:12.950Z,49.93
2018-05-13T19:13:40.560Z,49.90
2018-05-13T19:16:08.229Z,49.17
2018-05-13T19:18:36.026Z,52.20
2018-05-13T19:21:03.665Z,52.70
2018-05-13T19:23:31.410Z,54.97
2018-05-13T19:25:59.029Z,54.57
2018-05-13T19:28:26.738Z,56.30
2018-05-13T19:30:54.387Z,54.67
2018-05-13T19:33:22.058Z,54.97
2018-05-13T19:35:49.689Z,53.97
2018-05-13T19:38:17.313Z,55.60
2018-05-13T19:40:44.962Z,59.20
2018-05-13T19:43:12.631Z,57.63
2018-05-13T19:45:40.242Z,56.83
2018-05-13T19:48:07.978Z,57.33
2018-05-13T19:50:35.582Z,60.67
2018-05-13T19:53:03.255Z,58.80
2018-05-13T19:55:30.866Z,61.47
2018-05-13T19:57:58.552Z,58.33
2018-05-13T20:00:26.181Z,56.37
2018-05-13T20:02:53.939Z,57.07
2018-05-13T20:05:21.481Z,55.47
2018-05-13T20:07:49.091Z,56.50
2018-05-13T20:10:16.770Z,54.43
2018-05-13T20:12:44.461Z,52.53
2018-05-13T20:15:12.116Z,57.17
2018-05-13T20:17:39.723Z,57.50
2018-05-13T20:20:07.424Z,58.77
2018-05-13T20:22:46.771Z,54.43
2018-05-13T20:25:14.377Z,56.40
2018-05-13T20:27:42.049Z,53.77
2018-05-13T20:30:09.689Z,54.17
2018-05-13T20:32:37.426Z,58.33
2018-05-13T20:35:05.211Z,55.70
2018-05-13T20:37:32.828Z,55.60
2018-05-13T20:40:00.531Z,57.50
2018-05-13T20:42:28.169Z,56.70
2018-05-13T20:44:55.971Z,54.73
2018-05-13T20:47:23.576Z,56.60
2018-05-13T20:49:51.216Z,55.87
2018-05-13T20:52:18.863Z,54.00
2018-05-13T20:54:46.531Z,55.10
2018-05-13T20:57:14.241Z,55.60
2018-05-13T20:59:41.907Z,57.70
2018-05-13T21:02:09.577Z,56.10
2018-05-13T21:04:37.309Z,57.40
2018-05-13T21:07:04.937Z,57.43
2018-05-13T21:09:32.686Z,54.73
2018-05-13T21:12:00.290Z,56.50
2018-05-13T21:14:28.145Z,55.87
2018-05-13T21:16:55.802Z,57.10
2018-05-13T21:19:23.569Z,59.70
2018-05-13T21:21:51.175Z,55.93
2018-05-13T21:24:18.802Z,57.10
2018-05-13T21:26:46.465Z,58.70
2018-05-13T21:29:14.101Z,57.30
2018-05-13T21:31:41.769Z,54.40
2018-05-13T21:34:09.385Z,54.90
2018-05-13T21:36:37.020Z,55.30
2018-05-13T21:39:04.671Z,56.77
2018-05-13T21:41:32.303Z,53.63
2018-05-13T21:43:59.973Z,56.47
2018-05-13T21:46:27.620Z,57.17
2018-05-13T21:48:55.222Z,54.47
2018-05-13T21:51:23.029Z,56.33
2018-05-13T21:53:50.648Z,60.23
2018-05-13T21:56:18.339Z,54.57
2018-05-13T21:58:45.946Z,59.57
2018-05-13T22:01:13.629Z,58.80
2018-05-13T22:03:41.260Z,58.20
2018-05-13T22:06:08.893Z,58.60
2018-05-13T22:08:36.572Z,58.00
2018-05-13T22:11:04.182Z,59.30
2018-05-13T22:13:31.896Z,61.90
2018-05-13T22:15:59.535Z,56.10
2018-05-13T22:18:27.209Z,56.67
2018-05-13T22:20:54.824Z,61.07
2018-05-13T22:23:22.477Z,56.00
2018-05-13T22:25:50.111Z,58.50
2018-05-13T22:28:17.779Z,57.77
2018-05-13T22:30:45.393Z,59.83
2018-05-13T22:33:13.146Z,56.83
2018-05-13T22:35:40.770Z,58.23
2018-05-13T22:38:08.414Z,58.43
2018-05-13T22:40:36.037Z,59.40
2018-05-13T22:43:03.677Z,60.50
2018-05-13T22:45:31.279Z,60.07
2018-05-13T22:47:58.916Z,59.10
2018-05-13T22:50:26.518Z,58.20
2018-05-13T22:52:54.156Z,60.10
2018-05-13T22:55:21.779Z,63.83
2018-05-13T22:57:49.429Z,61.53
2018-05-13T23:00:17.047Z,65.77
2018-05-13T23:02:44.658Z,65.83
2018-05-13T23:05:12.289Z,70.50
2018-05-13T23:07:39.906Z,71.00
2018-05-13T23:10:07.533Z,67.80
2018-05-13T23:12:35.165Z,68.47
2018-05-13T23:15:02.808Z,68.13
2018-05-13T23:17:30.401Z,65.67
2018-05-13T23:19:58.052Z,69.67
2018-05-13T23:22:34.333Z,69.83
2018-05-13T23:25:01.972Z,71.07
2018-05-13T23:27:29.584Z,71.60
2018-05-13T23:29:57.342Z,70.30
2018-05-13T23:32:24.960Z,72.27
2018-05-13T23:34:52.656Z,71.47
2018-05-13T23:37:20.269Z,69.87
2018-05-13T23:39:47.908Z,74.83
2018-05-13T23:42:15.540Z,73.70
2018-05-13T23:44:43.229Z,74.30
2018-05-13T23:47:10.830Z,74.63
2018-05-13T23:49:38.548Z,78.53
2018-05-13T23:52:06.157Z,74.50
2018-05-13T23:54:33.837Z,78.67
2018-05-13T23:57:01.485Z,75.53
2018-05-13T23:59:29.103Z,76.23
